S/y Stay Calm — MNVV3 — position and weather

sailwx.info

Track history (hours):
 
Tides and Currents Weather Stations Pressure Air Temp Water Temp Dewpoint Dewpoint Depression Visibility Wind Speed Wind Dir Waves Ship Positions

S/y Stay Calm

Last reported at 2017-Feb-24 21:19 UTC. Time now 2017-Feb-27 07:05 UTC.
Position N 18°09' W 063°27'.

Length 24 m.

Type: Sailing vessel. MMSI: 235038688.

Date/timePositionNaut miles runAvg speedWind from/ knotsBaromVisibWave heightAir tempDewpointWater temp
2017-Feb-24 21:19N 18°09' W 063°27'8 9.1
2017-Feb-24 20:28N 18°06' W 063°19'10 8.3
2017-Feb-24 19:17N 18°02' W 063°10'3 3.6
2017-Feb-24 18:20N 18°02' W 063°06'0 0.0
2017-Feb-24 17:26N 18°02' W 063°06'0 0.0
2017-Feb-24 16:27N 18°02' W 063°06'0 0.0
2017-Feb-24 15:29N 18°02' W 063°06'0 0.0
2017-Feb-24 14:29N 18°02' W 063°06'0 0.0
2017-Feb-24 13:29N 18°02' W 063°06'0 0.0
2017-Feb-24 12:32N 18°02' W 063°06'0 0.0
2017-Feb-24 11:32N 18°02' W 063°06'0 0.0
2017-Feb-24 10:29N 18°02' W 063°06'0 0.0
2017-Feb-24 09:32N 18°02' W 063°06'0 0.0
2017-Feb-24 08:32N 18°02' W 063°06'0 0.0
2017-Feb-24 07:23N 18°02' W 063°06'0 0.0
2017-Feb-24 06:20N 18°02' W 063°06'0 0.0
2017-Feb-24 05:26N 18°02' W 063°06'0 0.0
2017-Feb-24 04:24N 18°02' W 063°06'0 0.0
2017-Feb-24 03:29N 18°02' W 063°06'0 0.0
2017-Feb-24 02:26N 18°02' W 063°06'0 0.0
2017-Feb-24 01:33N 18°02' W 063°06'0 0.0
2017-Feb-24 00:33N 18°02' W 063°06'0 0.0
2017-Feb-23 23:33N 18°02' W 063°06'0 0.0
2017-Feb-23 22:33N 18°02' W 063°06'0 0.0
2017-Feb-23 21:20N 18°02' W 063°06'0 0.0
2017-Feb-23 20:33N 18°02' W 063°06'0 0.0
2017-Feb-23 19:24N 18°02' W 063°06'0 0.0
2017-Feb-23 18:24N 18°02' W 063°06'0 0.0
2017-Feb-23 17:27N 18°02' W 063°06'0 0.0
2017-Feb-23 16:27N 18°02' W 063°06'0 0.0
2017-Feb-23 15:30N 18°02' W 063°06'0 0.0
2017-Feb-23 14:30N 18°02' W 063°06'0 0.0
2017-Feb-23 13:33N 18°02' W 063°06'0 0.0
2017-Feb-23 12:27N 18°02' W 063°06'0 0.0
2017-Feb-23 11:30N 18°02' W 063°06'0 0.0
2017-Feb-23 10:33N 18°02' W 063°06'0 0.0
2017-Feb-23 09:33N 18°02' W 063°06'0 0.0
2017-Feb-23 08:33N 18°02' W 063°06'0 0.0
2017-Feb-23 07:24N 18°02' W 063°06'0 0.0
2017-Feb-23 06:21N 18°02' W 063°06'0 0.0
2017-Feb-23 05:27N 18°02' W 063°06'0 0.0
2017-Feb-23 04:27N 18°02' W 063°06'0 0.0
2017-Feb-23 03:30N 18°02' W 063°06'0 0.0
2017-Feb-23 02:30N 18°02' W 063°06'0 0.0
2017-Feb-23 01:33N 18°02' W 063°06'4 3.9
2017-Feb-23 00:33N 17°59' W 063°04'52 8.6
2017-Feb-22 18:29N 17°25' W 062°22'7 8.0
2017-Feb-22 17:33N 17°20' W 062°17'8 8.1
2017-Feb-22 16:33N 17°14' W 062°11'8 8.1
2017-Feb-22 15:33N 17°08' W 062°05'10 8.2
2017-Feb-22 14:23N 17°01' W 061°58'6 7.6
2017-Feb-22 13:33N 16°60' W 061°52'6 5.6
2017-Feb-22 12:32N 17°01' W 061°46'0 0.0
2017-Feb-22 11:32N 17°01' W 061°46'0 0.0
2017-Feb-22 10:32N 17°01' W 061°46'0 0.0
2017-Feb-22 09:32N 17°01' W 061°46'0 0.0
2017-Feb-22 08:32N 17°01' W 061°46'0 0.0
2017-Feb-22 07:32N 17°01' W 061°46'0 0.0
2017-Feb-22 06:32N 17°01' W 061°46'0 0.0
2017-Feb-22 05:32N 17°01' W 061°46'0 0.0
2017-Feb-22 04:32N 17°01' W 061°46'0 0.0
2017-Feb-22 03:32N 17°01' W 061°46'0 0.0
2017-Feb-22 02:32N 17°01' W 061°46'0 0.0
2017-Feb-22 01:32N 17°01' W 061°46'0 0.0
2017-Feb-22 00:32N 17°01' W 061°46'0 0.0
2017-Feb-21 23:32N 17°01' W 061°46'0 0.0
2017-Feb-21 22:32N 17°01' W 061°46'0 0.0
2017-Feb-21 21:32N 17°01' W 061°46'0 0.0
2017-Feb-21 20:32N 17°01' W 061°46'0 0.0
2017-Feb-21 19:32N 17°01' W 061°46'0 0.0
2017-Feb-21 16:32N 17°01' W 061°46'0 0.0
2017-Feb-21 15:32N 17°01' W 061°46'0 0.0
2017-Feb-21 14:32N 17°01' W 061°46'0 0.0
2017-Feb-21 13:32N 17°01' W 061°46'0 0.0
2017-Feb-21 12:31N 17°01' W 061°46'0 0.0
2017-Feb-21 11:31N 17°01' W 061°46'0 0.0
2017-Feb-21 10:31N 17°01' W 061°46'0 0.0
2017-Feb-21 09:31N 17°01' W 061°46'0 0.0
2017-Feb-21 08:31N 17°01' W 061°46'0 0.0
2017-Feb-21 07:31N 17°01' W 061°46'0 0.0
2017-Feb-21 06:31N 17°01' W 061°46'0 0.0
2017-Feb-21 05:31N 17°01' W 061°46'0 0.0
2017-Feb-21 04:31N 17°01' W 061°46'0 0.0
2017-Feb-21 03:31N 17°01' W 061°46'0 0.0
2017-Feb-21 02:31N 17°01' W 061°46'0 0.0
2017-Feb-21 01:31N 17°01' W 061°46'0 0.0
2017-Feb-21 00:31N 17°01' W 061°46'0 0.0
2017-Feb-20 23:31N 17°01' W 061°46'0 0.0
2017-Feb-20 22:31N 17°01' W 061°46'0 0.0
2017-Feb-20 21:31N 17°01' W 061°46'0 0.0
2017-Feb-20 20:31N 17°01' W 061°46'0 0.0
2017-Feb-20 19:31N 17°01' W 061°46'0 0.0
2017-Feb-20 18:31N 17°01' W 061°46'0 0.0
2017-Feb-20 17:28N 17°01' W 061°46'0 0.0
2017-Feb-20 16:31N 17°01' W 061°46'0 0.0
2017-Feb-20 15:31N 17°01' W 061°46'1 0.9
2017-Feb-20 14:33N 16°60' W 061°46'1 0.6
2017-Feb-20 13:32N 17°01' W 061°46'0 0.0
2017-Feb-20 12:32N 17°01' W 061°46'0 0.0
2017-Feb-20 11:32N 17°01' W 061°46'0 0.0
2017-Feb-20 10:32N 17°01' W 061°46'0 0.0
2017-Feb-20 09:32N 17°01' W 061°46'0 0.0
2017-Feb-20 08:32N 17°01' W 061°46'0 0.0
2017-Feb-20 07:32N 17°01' W 061°46'0 0.0
2017-Feb-20 06:32N 17°01' W 061°46'0 0.0
2017-Feb-20 05:32N 17°01' W 061°46'0 0.0
2017-Feb-20 04:32N 17°01' W 061°46'0 0.0
2017-Feb-20 03:32N 17°01' W 061°46'0 0.0
2017-Feb-20 02:32N 17°01' W 061°46'0 0.0
2017-Feb-20 01:32N 17°01' W 061°46'0 0.0
2017-Feb-20 00:32N 17°01' W 061°46'0 0.0
2017-Feb-19 23:32N 17°01' W 061°46'0 0.0
2017-Feb-19 22:32N 17°01' W 061°46'0 0.0
2017-Feb-19 21:32N 17°01' W 061°46'0 0.0
2017-Feb-19 20:32N 17°01' W 061°46'0 0.0
2017-Feb-19 19:32N 17°01' W 061°46'0 0.0
2017-Feb-19 18:32N 17°01' W 061°46'0 0.0
2017-Feb-19 17:32N 17°01' W 061°46'0 0.0
2017-Feb-19 16:32N 17°01' W 061°46'0 0.0
2017-Feb-19 15:32N 17°01' W 061°46'0 0.0
2017-Feb-19 14:29N 17°01' W 061°46'0 0.0
2017-Feb-19 13:32N 17°01' W 061°46'0 0.0
2017-Feb-19 12:29N 17°01' W 061°46'0 0.0
2017-Feb-19 11:29N 17°01' W 061°46'0 0.0
2017-Feb-19 10:32N 17°01' W 061°46'0 0.0
2017-Feb-19 09:23N 17°01' W 061°46'0 0.0
2017-Feb-19 08:32N 17°01' W 061°46'0 0.0
2017-Feb-19 07:32N 17°01' W 061°46'0 0.0
2017-Feb-19 06:32N 17°01' W 061°46'0 0.0
2017-Feb-19 05:32N 17°01' W 061°46'0 0.0
2017-Feb-19 04:32N 17°01' W 061°46'0 0.0
2017-Feb-19 03:32N 17°01' W 061°46'0 0.0
2017-Feb-19 02:32N 17°01' W 061°46'0 0.0
2017-Feb-19 01:32N 17°01' W 061°46'0 0.0
2017-Feb-19 00:32N 17°01' W 061°46'0 0.0
2017-Feb-18 23:32N 17°01' W 061°46'0 0.0
2017-Feb-18 22:32N 17°01' W 061°46'0 0.0
2017-Feb-18 21:32N 17°01' W 061°46'0 0.0
2017-Feb-18 20:32N 17°01' W 061°46'0 0.0
2017-Feb-18 19:32N 17°01' W 061°46'0 0.0
2017-Feb-18 18:32N 17°01' W 061°46'0 0.0
2017-Feb-18 17:32N 17°01' W 061°46'0 0.0
2017-Feb-18 16:32N 17°01' W 061°46'0 0.0
2017-Feb-18 15:32N 17°01' W 061°46'0 0.0
2017-Feb-18 14:32N 17°01' W 061°46'0 0.0
2017-Feb-18 13:32N 17°01' W 061°46'0 0.0
2017-Feb-18 12:32N 17°01' W 061°46'0 0.0
2017-Feb-18 11:32N 17°01' W 061°46'0 0.0
2017-Feb-18 10:32N 17°01' W 061°46'0 0.0
2017-Feb-18 09:32N 17°01' W 061°46'0 0.0
2017-Feb-18 08:32N 17°01' W 061°46'0 0.0
2017-Feb-18 07:32N 17°01' W 061°46'0 0.0
2017-Feb-18 06:32N 17°01' W 061°46'0 0.0
2017-Feb-18 05:33N 17°01' W 061°46'0 0.0
2017-Feb-18 04:32N 17°01' W 061°46'0 0.0
2017-Feb-18 03:33N 17°01' W 061°46'0 0.0
2017-Feb-18 02:33N 17°01' W 061°46'0 0.0
2017-Feb-18 01:32N 17°01' W 061°46'0 0.0
2017-Feb-18 00:33N 17°01' W 061°46'0 0.0
2017-Feb-17 23:30N 17°01' W 061°46'0 0.0
2017-Feb-17 22:32N 17°01' W 061°46'0 0.0
2017-Feb-17 21:32N 17°01' W 061°46'0 0.0
2017-Feb-17 20:32N 17°01' W 061°46'0 0.0
2017-Feb-17 19:32N 17°01' W 061°46'0 0.0
2017-Feb-17 18:32N 17°01' W 061°46'0 0.0
2017-Feb-17 17:29N 17°01' W 061°46'0 0.0
2017-Feb-17 16:32N 17°01' W 061°46'0 0.0
2017-Feb-17 15:32N 17°01' W 061°46'0 0.0
2017-Feb-17 14:32N 17°01' W 061°46'0 0.0
2017-Feb-17 13:32N 17°01' W 061°46'0 0.0
2017-Feb-17 12:32N 17°01' W 061°46'0 0.0
2017-Feb-17 11:32N 17°01' W 061°46'0 0.0
2017-Feb-17 10:32N 17°01' W 061°46'0 0.0
2017-Feb-17 09:32N 17°01' W 061°46'0 0.0
2017-Feb-17 08:32N 17°01' W 061°46'0 0.0
2017-Feb-17 07:32N 17°01' W 061°46'0 0.0
2017-Feb-17 06:32N 17°01' W 061°46'0 0.0
2017-Feb-17 05:32N 17°01' W 061°46'0 0.0
2017-Feb-17 04:32N 17°01' W 061°46'0 0.0
2017-Feb-17 03:32N 17°01' W 061°46'0 0.0
2017-Feb-17 02:32N 17°01' W 061°46'0 0.0
2017-Feb-17 01:32N 17°01' W 061°46'0 0.0
2017-Feb-17 00:32N 17°01' W 061°46'0 0.0
2017-Feb-16 23:32N 17°01' W 061°46'0 0.0
2017-Feb-16 22:32N 17°01' W 061°46'0 0.0
2017-Feb-16 21:32N 17°01' W 061°46'0 0.0
2017-Feb-16 20:32N 17°01' W 061°46'0 0.0
2017-Feb-16 19:33N 17°01' W 061°46'0 0.0
2017-Feb-16 18:33N 17°01' W 061°46'0 0.0
2017-Feb-16 17:33N 17°01' W 061°46'0 0.0
2017-Feb-16 16:33N 17°01' W 061°46'0 0.0
2017-Feb-16 15:33N 17°01' W 061°46'0 0.0
2017-Feb-16 14:33N 17°01' W 061°46'0 0.0
2017-Feb-16 13:33N 17°01' W 061°46'0 0.0
2017-Feb-16 12:33N 17°01' W 061°46'0 0.0
2017-Feb-16 11:33N 17°01' W 061°46'0 0.0
2017-Feb-16 10:33N 17°01' W 061°46'0 0.0
2017-Feb-16 09:33N 17°01' W 061°46'0 0.0
2017-Feb-16 08:33N 17°01' W 061°46'0 0.0
2017-Feb-16 07:33N 17°01' W 061°46'0 0.0
2017-Feb-16 06:33N 17°01' W 061°46'0 0.0
2017-Feb-16 05:33N 17°01' W 061°46'0 0.0
2017-Feb-16 04:33N 17°01' W 061°46'0 0.0
2017-Feb-16 03:30N 17°01' W 061°46'0 0.0
2017-Feb-16 02:33N 17°01' W 061°46'0 0.0
2017-Feb-16 01:33N 17°01' W 061°46'0 0.0
2017-Feb-16 00:33N 17°01' W 061°46'0 0.0
2017-Feb-15 23:33N 17°01' W 061°46'0 0.0
2017-Feb-15 22:33N 17°01' W 061°46'0 0.0
2017-Feb-15 21:33N 17°01' W 061°46'0 0.0
2017-Feb-15 20:33N 17°01' W 061°46'0 0.0
2017-Feb-15 19:33N 17°01' W 061°46'0 0.0
2017-Feb-15 18:30N 17°01' W 061°46'0 0.0
2017-Feb-15 17:33N 17°01' W 061°46'0 0.0
2017-Feb-15 16:33N 17°01' W 061°46'0 0.0
2017-Feb-15 15:33N 17°01' W 061°46'0 0.0
2017-Feb-15 14:33N 17°01' W 061°46'0 0.0
2017-Feb-15 13:33N 17°01' W 061°46'0 0.0
2017-Feb-15 12:33N 17°01' W 061°46'0 0.0
2017-Feb-15 11:33N 17°01' W 061°46'0 0.0
2017-Feb-15 10:33N 17°01' W 061°46'0 0.0
2017-Feb-15 09:33N 17°01' W 061°46'0 0.0
2017-Feb-15 08:33N 17°01' W 061°46'0 0.0
2017-Feb-15 07:33N 17°01' W 061°46'0 0.0
2017-Feb-15 06:33N 17°01' W 061°46'0 0.0
2017-Feb-15 05:33N 17°01' W 061°46'0 0.0
2017-Feb-15 04:33N 17°01' W 061°46'0 0.0
2017-Feb-15 03:33N 17°01' W 061°46'0 0.0
2017-Feb-15 02:33N 17°01' W 061°46'0 0.0
2017-Feb-15 01:33N 17°01' W 061°46'0 0.0
2017-Feb-15 00:33N 17°01' W 061°46'0 0.0
2017-Feb-14 23:33N 17°01' W 061°46'0 0.0
2017-Feb-14 22:33N 17°01' W 061°46'0 0.0
2017-Feb-14 21:33N 17°01' W 061°46'  
Track history (hours):
 
Tides and Currents Weather Stations Pressure Air Temp Water Temp Dewpoint Dewpoint Depression Visibility Wind Speed Wind Dir Waves Ship Positions

S/y Stay Calm

Last reported at 2017-Feb-24 21:19 UTC. Time now 2017-Feb-27 07:05 UTC.
Position N 18°09' W 063°27'.

Length 24 m.

Type: Sailing vessel. MMSI: 235038688.

Date/timePositionNaut miles runAvg speedWind from/ knotsBaromVisibWave heightAir tempDewpointWater temp
2017-Feb-24 21:19N 18°09' W 063°27'8 9.1
2017-Feb-24 20:28N 18°06' W 063°19'10 8.3
2017-Feb-24 19:17N 18°02' W 063°10'3 3.6
2017-Feb-24 18:20N 18°02' W 063°06'0 0.0
2017-Feb-24 17:26N 18°02' W 063°06'0 0.0
2017-Feb-24 16:27N 18°02' W 063°06'0 0.0
2017-Feb-24 15:29N 18°02' W 063°06'0 0.0
2017-Feb-24 14:29N 18°02' W 063°06'0 0.0
2017-Feb-24 13:29N 18°02' W 063°06'0 0.0
2017-Feb-24 12:32N 18°02' W 063°06'0 0.0
2017-Feb-24 11:32N 18°02' W 063°06'0 0.0
2017-Feb-24 10:29N 18°02' W 063°06'0 0.0
2017-Feb-24 09:32N 18°02' W 063°06'0 0.0
2017-Feb-24 08:32N 18°02' W 063°06'0 0.0
2017-Feb-24 07:23N 18°02' W 063°06'0 0.0
2017-Feb-24 06:20N 18°02' W 063°06'0 0.0
2017-Feb-24 05:26N 18°02' W 063°06'0 0.0
2017-Feb-24 04:24N 18°02' W 063°06'0 0.0
2017-Feb-24 03:29N 18°02' W 063°06'0 0.0
2017-Feb-24 02:26N 18°02' W 063°06'0 0.0
2017-Feb-24 01:33N 18°02' W 063°06'0 0.0
2017-Feb-24 00:33N 18°02' W 063°06'0 0.0
2017-Feb-23 23:33N 18°02' W 063°06'0 0.0
2017-Feb-23 22:33N 18°02' W 063°06'0 0.0
2017-Feb-23 21:20N 18°02' W 063°06'0 0.0
2017-Feb-23 20:33N 18°02' W 063°06'0 0.0
2017-Feb-23 19:24N 18°02' W 063°06'0 0.0
2017-Feb-23 18:24N 18°02' W 063°06'0 0.0
2017-Feb-23 17:27N 18°02' W 063°06'0 0.0
2017-Feb-23 16:27N 18°02' W 063°06'0 0.0
2017-Feb-23 15:30N 18°02' W 063°06'0 0.0
2017-Feb-23 14:30N 18°02' W 063°06'0 0.0
2017-Feb-23 13:33N 18°02' W 063°06'0 0.0
2017-Feb-23 12:27N 18°02' W 063°06'0 0.0
2017-Feb-23 11:30N 18°02' W 063°06'0 0.0
2017-Feb-23 10:33N 18°02' W 063°06'0 0.0
2017-Feb-23 09:33N 18°02' W 063°06'0 0.0
2017-Feb-23 08:33N 18°02' W 063°06'0 0.0
2017-Feb-23 07:24N 18°02' W 063°06'0 0.0
2017-Feb-23 06:21N 18°02' W 063°06'0 0.0
2017-Feb-23 05:27N 18°02' W 063°06'0 0.0
2017-Feb-23 04:27N 18°02' W 063°06'0 0.0
2017-Feb-23 03:30N 18°02' W 063°06'0 0.0
2017-Feb-23 02:30N 18°02' W 063°06'0 0.0
2017-Feb-23 01:33N 18°02' W 063°06'4 3.9
2017-Feb-23 00:33N 17°59' W 063°04'52 8.6
2017-Feb-22 18:29N 17°25' W 062°22'7 8.0
2017-Feb-22 17:33N 17°20' W 062°17'8 8.1
2017-Feb-22 16:33N 17°14' W 062°11'8 8.1
2017-Feb-22 15:33N 17°08' W 062°05'10 8.2
2017-Feb-22 14:23N 17°01' W 061°58'6 7.6
2017-Feb-22 13:33N 16°60' W 061°52'6 5.6
2017-Feb-22 12:32N 17°01' W 061°46'0 0.0
2017-Feb-22 11:32N 17°01' W 061°46'0 0.0
2017-Feb-22 10:32N 17°01' W 061°46'0 0.0
2017-Feb-22 09:32N 17°01' W 061°46'0 0.0
2017-Feb-22 08:32N 17°01' W 061°46'0 0.0
2017-Feb-22 07:32N 17°01' W 061°46'0 0.0
2017-Feb-22 06:32N 17°01' W 061°46'0 0.0
2017-Feb-22 05:32N 17°01' W 061°46'0 0.0
2017-Feb-22 04:32N 17°01' W 061°46'0 0.0
2017-Feb-22 03:32N 17°01' W 061°46'0 0.0
2017-Feb-22 02:32N 17°01' W 061°46'0 0.0
2017-Feb-22 01:32N 17°01' W 061°46'0 0.0
2017-Feb-22 00:32N 17°01' W 061°46'0 0.0
2017-Feb-21 23:32N 17°01' W 061°46'0 0.0
2017-Feb-21 22:32N 17°01' W 061°46'0 0.0
2017-Feb-21 21:32N 17°01' W 061°46'0 0.0
2017-Feb-21 20:32N 17°01' W 061°46'0 0.0
2017-Feb-21 19:32N 17°01' W 061°46'0 0.0
2017-Feb-21 16:32N 17°01' W 061°46'0 0.0
2017-Feb-21 15:32N 17°01' W 061°46'0 0.0
2017-Feb-21 14:32N 17°01' W 061°46'0 0.0
2017-Feb-21 13:32N 17°01' W 061°46'0 0.0
2017-Feb-21 12:31N 17°01' W 061°46'0 0.0
2017-Feb-21 11:31N 17°01' W 061°46'0 0.0
2017-Feb-21 10:31N 17°01' W 061°46'0 0.0
2017-Feb-21 09:31N 17°01' W 061°46'0 0.0
2017-Feb-21 08:31N 17°01' W 061°46'0 0.0
2017-Feb-21 07:31N 17°01' W 061°46'0 0.0
2017-Feb-21 06:31N 17°01' W 061°46'0 0.0
2017-Feb-21 05:31N 17°01' W 061°46'0 0.0
2017-Feb-21 04:31N 17°01' W 061°46'0 0.0
2017-Feb-21 03:31N 17°01' W 061°46'0 0.0
2017-Feb-21 02:31N 17°01' W 061°46'0 0.0
2017-Feb-21 01:31N 17°01' W 061°46'0 0.0
2017-Feb-21 00:31N 17°01' W 061°46'0 0.0
2017-Feb-20 23:31N 17°01' W 061°46'0 0.0
2017-Feb-20 22:31N 17°01' W 061°46'0 0.0
2017-Feb-20 21:31N 17°01' W 061°46'0 0.0
2017-Feb-20 20:31N 17°01' W 061°46'0 0.0
2017-Feb-20 19:31N 17°01' W 061°46'0 0.0
2017-Feb-20 18:31N 17°01' W 061°46'0 0.0
2017-Feb-20 17:28N 17°01' W 061°46'0 0.0
2017-Feb-20 16:31N 17°01' W 061°46'0 0.0
2017-Feb-20 15:31N 17°01' W 061°46'1 0.9
2017-Feb-20 14:33N 16°60' W 061°46'1 0.6
2017-Feb-20 13:32N 17°01' W 061°46'0 0.0
2017-Feb-20 12:32N 17°01' W 061°46'0 0.0
2017-Feb-20 11:32N 17°01' W 061°46'0 0.0
2017-Feb-20 10:32N 17°01' W 061°46'0 0.0
2017-Feb-20 09:32N 17°01' W 061°46'0 0.0
2017-Feb-20 08:32N 17°01' W 061°46'0 0.0
2017-Feb-20 07:32N 17°01' W 061°46'0 0.0
2017-Feb-20 06:32N 17°01' W 061°46'0 0.0
2017-Feb-20 05:32N 17°01' W 061°46'0 0.0
2017-Feb-20 04:32N 17°01' W 061°46'0 0.0
2017-Feb-20 03:32N 17°01' W 061°46'0 0.0
2017-Feb-20 02:32N 17°01' W 061°46'0 0.0
2017-Feb-20 01:32N 17°01' W 061°46'0 0.0
2017-Feb-20 00:32N 17°01' W 061°46'0 0.0
2017-Feb-19 23:32N 17°01' W 061°46'0 0.0
2017-Feb-19 22:32N 17°01' W 061°46'0 0.0
2017-Feb-19 21:32N 17°01' W 061°46'0 0.0
2017-Feb-19 20:32N 17°01' W 061°46'0 0.0
2017-Feb-19 19:32N 17°01' W 061°46'0 0.0
2017-Feb-19 18:32N 17°01' W 061°46'0 0.0
2017-Feb-19 17:32N 17°01' W 061°46'0 0.0
2017-Feb-19 16:32N 17°01' W 061°46'0 0.0
2017-Feb-19 15:32N 17°01' W 061°46'0 0.0
2017-Feb-19 14:29N 17°01' W 061°46'0 0.0
2017-Feb-19 13:32N 17°01' W 061°46'0 0.0
2017-Feb-19 12:29N 17°01' W 061°46'0 0.0
2017-Feb-19 11:29N 17°01' W 061°46'0 0.0
2017-Feb-19 10:32N 17°01' W 061°46'0 0.0
2017-Feb-19 09:23N 17°01' W 061°46'0 0.0
2017-Feb-19 08:32N 17°01' W 061°46'0 0.0
2017-Feb-19 07:32N 17°01' W 061°46'0 0.0
2017-Feb-19 06:32N 17°01' W 061°46'0 0.0
2017-Feb-19 05:32N 17°01' W 061°46'0 0.0
2017-Feb-19 04:32N 17°01' W 061°46'0 0.0
2017-Feb-19 03:32N 17°01' W 061°46'0 0.0
2017-Feb-19 02:32N 17°01' W 061°46'0 0.0
2017-Feb-19 01:32N 17°01' W 061°46'0 0.0
2017-Feb-19 00:32N 17°01' W 061°46'0 0.0
2017-Feb-18 23:32N 17°01' W 061°46'0 0.0
2017-Feb-18 22:32N 17°01' W 061°46'0 0.0
2017-Feb-18 21:32N 17°01' W 061°46'0 0.0
2017-Feb-18 20:32N 17°01' W 061°46'0 0.0
2017-Feb-18 19:32N 17°01' W 061°46'0 0.0
2017-Feb-18 18:32N 17°01' W 061°46'0 0.0
2017-Feb-18 17:32N 17°01' W 061°46'0 0.0
2017-Feb-18 16:32N 17°01' W 061°46'0 0.0
2017-Feb-18 15:32N 17°01' W 061°46'0 0.0
2017-Feb-18 14:32N 17°01' W 061°46'0 0.0
2017-Feb-18 13:32N 17°01' W 061°46'0 0.0
2017-Feb-18 12:32N 17°01' W 061°46'0 0.0
2017-Feb-18 11:32N 17°01' W 061°46'0 0.0
2017-Feb-18 10:32N 17°01' W 061°46'0 0.0
2017-Feb-18 09:32N 17°01' W 061°46'0 0.0
2017-Feb-18 08:32N 17°01' W 061°46'0 0.0
2017-Feb-18 07:32N 17°01' W 061°46'0 0.0
2017-Feb-18 06:32N 17°01' W 061°46'0 0.0
2017-Feb-18 05:33N 17°01' W 061°46'0 0.0
2017-Feb-18 04:32N 17°01' W 061°46'0 0.0
2017-Feb-18 03:33N 17°01' W 061°46'0 0.0
2017-Feb-18 02:33N 17°01' W 061°46'0 0.0
2017-Feb-18 01:32N 17°01' W 061°46'0 0.0
2017-Feb-18 00:33N 17°01' W 061°46'0 0.0
2017-Feb-17 23:30N 17°01' W 061°46'0 0.0
2017-Feb-17 22:32N 17°01' W 061°46'0 0.0
2017-Feb-17 21:32N 17°01' W 061°46'0 0.0
2017-Feb-17 20:32N 17°01' W 061°46'0 0.0
2017-Feb-17 19:32N 17°01' W 061°46'0 0.0
2017-Feb-17 18:32N 17°01' W 061°46'0 0.0
2017-Feb-17 17:29N 17°01' W 061°46'0 0.0
2017-Feb-17 16:32N 17°01' W 061°46'0 0.0
2017-Feb-17 15:32N 17°01' W 061°46'0 0.0
2017-Feb-17 14:32N 17°01' W 061°46'0 0.0
2017-Feb-17 13:32N 17°01' W 061°46'0 0.0
2017-Feb-17 12:32N 17°01' W 061°46'0 0.0
2017-Feb-17 11:32N 17°01' W 061°46'0 0.0
2017-Feb-17 10:32N 17°01' W 061°46'0 0.0
2017-Feb-17 09:32N 17°01' W 061°46'0 0.0
2017-Feb-17 08:32N 17°01' W 061°46'0 0.0
2017-Feb-17 07:32N 17°01' W 061°46'0 0.0
2017-Feb-17 06:32N 17°01' W 061°46'0 0.0
2017-Feb-17 05:32N 17°01' W 061°46'0 0.0
2017-Feb-17 04:32N 17°01' W 061°46'0 0.0
2017-Feb-17 03:32N 17°01' W 061°46'0 0.0
2017-Feb-17 02:32N 17°01' W 061°46'0 0.0
2017-Feb-17 01:32N 17°01' W 061°46'0 0.0
2017-Feb-17 00:32N 17°01' W 061°46'0 0.0
2017-Feb-16 23:32N 17°01' W 061°46'0 0.0
2017-Feb-16 22:32N 17°01' W 061°46'0 0.0
2017-Feb-16 21:32N 17°01' W 061°46'0 0.0
2017-Feb-16 20:32N 17°01' W 061°46'0 0.0
2017-Feb-16 19:33N 17°01' W 061°46'0 0.0
2017-Feb-16 18:33N 17°01' W 061°46'0 0.0
2017-Feb-16 17:33N 17°01' W 061°46'0 0.0
2017-Feb-16 16:33N 17°01' W 061°46'0 0.0
2017-Feb-16 15:33N 17°01' W 061°46'0 0.0
2017-Feb-16 14:33N 17°01' W 061°46'0 0.0
2017-Feb-16 13:33N 17°01' W 061°46'0 0.0
2017-Feb-16 12:33N 17°01' W 061°46'0 0.0
2017-Feb-16 11:33N 17°01' W 061°46'0 0.0
2017-Feb-16 10:33N 17°01' W 061°46'0 0.0
2017-Feb-16 09:33N 17°01' W 061°46'0 0.0
2017-Feb-16 08:33N 17°01' W 061°46'0 0.0
2017-Feb-16 07:33N 17°01' W 061°46'0 0.0
2017-Feb-16 06:33N 17°01' W 061°46'0 0.0
2017-Feb-16 05:33N 17°01' W 061°46'0 0.0
2017-Feb-16 04:33N 17°01' W 061°46'0 0.0
2017-Feb-16 03:30N 17°01' W 061°46'0 0.0
2017-Feb-16 02:33N 17°01' W 061°46'0 0.0
2017-Feb-16 01:33N 17°01' W 061°46'0 0.0
2017-Feb-16 00:33N 17°01' W 061°46'0 0.0
2017-Feb-15 23:33N 17°01' W 061°46'0 0.0
2017-Feb-15 22:33N 17°01' W 061°46'0 0.0
2017-Feb-15 21:33N 17°01' W 061°46'0 0.0
2017-Feb-15 20:33N 17°01' W 061°46'0 0.0
2017-Feb-15 19:33N 17°01' W 061°46'0 0.0
2017-Feb-15 18:30N 17°01' W 061°46'0 0.0
2017-Feb-15 17:33N 17°01' W 061°46'0 0.0
2017-Feb-15 16:33N 17°01' W 061°46'0 0.0
2017-Feb-15 15:33N 17°01' W 061°46'0 0.0
2017-Feb-15 14:33N 17°01' W 061°46'0 0.0
2017-Feb-15 13:33N 17°01' W 061°46'0 0.0
2017-Feb-15 12:33N 17°01' W 061°46'0 0.0
2017-Feb-15 11:33N 17°01' W 061°46'0 0.0
2017-Feb-15 10:33N 17°01' W 061°46'0 0.0
2017-Feb-15 09:33N 17°01' W 061°46'0 0.0
2017-Feb-15 08:33N 17°01' W 061°46'0 0.0
2017-Feb-15 07:33N 17°01' W 061°46'0 0.0
2017-Feb-15 06:33N 17°01' W 061°46'0 0.0
2017-Feb-15 05:33N 17°01' W 061°46'0 0.0
2017-Feb-15 04:33N 17°01' W 061°46'0 0.0
2017-Feb-15 03:33N 17°01' W 061°46'0 0.0
2017-Feb-15 02:33N 17°01' W 061°46'0 0.0
2017-Feb-15 01:33N 17°01' W 061°46'0 0.0
2017-Feb-15 00:33N 17°01' W 061°46'0 0.0
2017-Feb-14 23:33N 17°01' W 061°46'0 0.0
2017-Feb-14 22:33N 17°01' W 061°46'0 0.0
2017-Feb-14 21:33N 17°01' W 061°46'  

Dump ship's entire track history